createdAt,value
2017-12-12T00:00:55.102Z,2.03
2017-12-12T00:03:30.052Z,2.67
2017-12-12T00:06:03.786Z,3.45
2017-12-12T00:08:37.399Z,1.90
2017-12-12T00:11:11.160Z,3.10
2017-12-12T00:13:44.904Z,3.37
2017-12-12T00:16:18.948Z,2.10
2017-12-12T00:18:52.524Z,4.05
2017-12-12T00:21:27.091Z,2.60
2017-12-12T00:24:00.820Z,2.03
2017-12-12T00:26:34.578Z,1.83
2017-12-12T00:29:08.269Z,2.35
2017-12-12T00:31:42.289Z,2.08
2017-12-12T00:34:16.541Z,2.65
2017-12-12T00:36:50.277Z,6.28
2017-12-12T00:39:23.921Z,1.37
2017-12-12T00:41:57.689Z,1.35
2017-12-12T00:44:31.397Z,2.12
2017-12-12T00:47:05.165Z,1.83
2017-12-12T00:49:38.952Z,1.50
2017-12-12T00:52:12.674Z,2.15
2017-12-12T00:54:46.451Z,4.00
2017-12-12T00:57:20.257Z,1.50
2017-12-12T00:59:54.020Z,1.40
2017-12-12T01:02:28.052Z,4.68
2017-12-12T01:05:02.659Z,1.85
2017-12-12T01:07:37.164Z,2.00
2017-12-12T01:10:11.531Z,2.28
2017-12-12T01:12:46.649Z,3.67
2017-12-12T01:15:20.438Z,1.62
2017-12-12T01:17:54.226Z,1.50
2017-12-12T01:20:28.002Z,1.98
2017-12-12T01:23:02.588Z,1.87
2017-12-12T01:25:36.217Z,1.60
2017-12-12T01:28:10.890Z,1.98
2017-12-12T01:30:44.578Z,1.67
2017-12-12T01:33:18.278Z,2.15
2017-12-12T01:35:52.546Z,1.52
2017-12-12T01:38:26.240Z,1.60
2017-12-12T01:41:00.006Z,1.60
2017-12-12T01:43:33.781Z,2.87
2017-12-12T01:46:08.287Z,1.80
2017-12-12T01:48:41.853Z,2.87
2017-12-12T01:51:15.588Z,2.30
2017-12-12T01:53:50.924Z,2.12
2017-12-12T01:56:25.345Z,3.47
2017-12-12T01:58:59.024Z,2.37
2017-12-12T02:01:33.470Z,1.87
2017-12-12T02:04:07.277Z,1.65
2017-12-12T02:06:41.077Z,2.55
2017-12-12T02:09:14.793Z,1.87
2017-12-12T02:11:48.496Z,1.65
2017-12-12T02:14:23.045Z,1.83
2017-12-12T02:16:56.796Z,1.40
2017-12-12T02:19:31.254Z,1.70
2017-12-12T02:22:06.460Z,1.75
2017-12-12T02:24:40.912Z,1.50
2017-12-12T02:27:16.440Z,3.55
2017-12-12T02:29:50.670Z,2.35
2017-12-12T02:32:27.622Z,2.22
2017-12-12T02:35:06.850Z,2.22
2017-12-12T02:37:42.047Z,2.15
2017-12-12T02:40:15.978Z,1.80
2017-12-12T02:42:50.751Z,4.37
2017-12-12T02:45:24.427Z,3.28
2017-12-12T02:47:59.040Z,8.15
2017-12-12T02:50:35.150Z,2.25
2017-12-12T02:53:09.580Z,2.22
2017-12-12T02:55:43.160Z,4.10
2017-12-12T02:58:19.853Z,1.77
2017-12-12T03:00:53.399Z,2.12
2017-12-12T03:03:27.972Z,2.37
2017-12-12T03:06:01.536Z,3.72
2017-12-12T03:08:35.368Z,3.35
2017-12-12T03:11:08.980Z,3.87
2017-12-12T03:13:43.502Z,3.08
2017-12-12T03:16:18.761Z,3.37
2017-12-12T03:18:52.344Z,4.05
2017-12-12T03:21:26.377Z,4.15
2017-12-12T03:26:42.106Z,3.92
2017-12-12T03:29:15.818Z,5.18
2017-12-12T03:31:49.528Z,7.95
2017-12-12T03:34:23.312Z,11.23
2017-12-12T03:36:57.053Z,13.05
2017-12-12T03:39:30.891Z,18.77
2017-12-12T03:42:04.471Z,19.30
2017-12-12T03:44:39.019Z,25.75
2017-12-12T03:47:12.809Z,24.95
2017-12-12T03:49:46.565Z,27.45
2017-12-12T03:52:20.336Z,20.45
2017-12-12T03:54:54.144Z,17.92
2017-12-12T03:57:32.196Z,20.40
2017-12-12T04:00:06.660Z,19.48
2017-12-12T04:02:40.732Z,21.77
2017-12-12T04:05:15.051Z,14.77
2017-12-12T04:07:48.696Z,17.17
2017-12-12T04:10:22.451Z,21.27
2017-12-12T04:12:56.995Z,15.85
2017-12-12T04:15:31.573Z,17.83
2017-12-12T04:18:05.877Z,16.12
2017-12-12T04:20:39.641Z,15.70
2017-12-12T04:23:14.213Z,14.75
2017-12-12T04:25:48.623Z,16.75
2017-12-12T04:28:22.764Z,12.57
2017-12-12T04:30:57.188Z,18.95
2017-12-12T04:33:30.798Z,15.75
2017-12-12T04:36:04.896Z,20.55
2017-12-12T04:38:40.232Z,15.77
2017-12-12T04:41:14.393Z,19.02
2017-12-12T04:43:48.281Z,17.77
2017-12-12T04:46:21.993Z,18.70
2017-12-12T04:48:55.797Z,20.75
2017-12-12T04:51:29.519Z,15.15
2017-12-12T04:54:03.288Z,21.35
2017-12-12T04:56:36.880Z,20.45
2017-12-12T04:59:11.233Z,17.73
2017-12-12T05:01:45.665Z,17.52
2017-12-12T05:04:20.962Z,25.42
2017-12-12T05:06:55.355Z,23.23
2017-12-12T05:09:29.411Z,18.30
2017-12-12T05:12:04.577Z,23.70
2017-12-12T05:14:38.312Z,21.98
2017-12-12T05:17:12.085Z,20.85
2017-12-12T05:19:45.876Z,20.83
2017-12-12T05:22:19.610Z,21.92
2017-12-12T05:24:53.300Z,22.35
2017-12-12T05:27:27.090Z,23.45
2017-12-12T05:30:00.900Z,23.23
2017-12-12T05:32:35.413Z,20.70
2017-12-12T05:35:10.212Z,23.95
2017-12-12T05:37:44.989Z,21.55
2017-12-12T05:40:19.714Z,18.73
2017-12-12T05:42:54.045Z,20.58
2017-12-12T05:45:28.822Z,18.02
2017-12-12T05:48:04.955Z,15.27
2017-12-12T05:50:40.236Z,16.87
2017-12-12T05:53:15.012Z,19.40
2017-12-12T05:55:49.905Z,14.85
2017-12-12T06:01:04.367Z,17.95
2017-12-12T06:03:39.694Z,21.50
2017-12-12T06:06:13.856Z,14.40
2017-12-12T06:08:48.733Z,21.90
2017-12-12T06:11:23.953Z,17.48
2017-12-12T06:13:58.391Z,17.98
2017-12-12T06:16:32.102Z,17.48
2017-12-12T06:19:05.894Z,20.37
2017-12-12T06:21:40.368Z,14.40
2017-12-12T06:24:16.160Z,21.80
2017-12-12T06:26:51.635Z,13.77
2017-12-12T06:29:25.206Z,21.30
2017-12-12T06:32:01.540Z,19.77
2017-12-12T06:34:35.330Z,21.05
2017-12-12T06:37:09.585Z,22.80
2017-12-12T06:39:43.334Z,14.98
2017-12-12T06:42:19.604Z,18.92
2017-12-12T06:44:54.080Z,16.12
2017-12-12T06:47:35.742Z,19.10
2017-12-12T06:50:13.953Z,21.17
2017-12-12T06:52:49.066Z,20.42
2017-12-12T06:55:25.213Z,24.65
2017-12-12T06:58:00.956Z,23.17
2017-12-12T07:00:37.864Z,20.10
2017-12-12T07:03:14.431Z,18.50
2017-12-12T07:05:49.123Z,29.77
2017-12-12T07:08:23.610Z,21.30
2017-12-12T07:10:57.523Z,15.68
2017-12-12T07:13:32.913Z,17.08
2017-12-12T07:16:07.915Z,15.05
2017-12-12T07:18:46.174Z,18.67
2017-12-12T07:21:20.688Z,24.17
2017-12-12T07:23:57.173Z,17.83
2017-12-12T07:26:32.247Z,18.75
2017-12-12T07:29:06.952Z,15.10
2017-12-12T07:31:41.885Z,20.30
2017-12-12T07:34:15.697Z,22.85
2017-12-12T07:36:52.097Z,21.75
2017-12-12T07:39:25.904Z,22.83
2017-12-12T07:42:01.467Z,19.05
2017-12-12T07:44:37.962Z,21.60
2017-12-12T07:47:11.530Z,29.50
2017-12-12T07:49:45.266Z,23.90
2017-12-12T07:52:19.033Z,23.92
2017-12-12T07:54:52.779Z,21.27
2017-12-12T07:57:28.327Z,26.37
2017-12-12T08:00:02.055Z,28.60
2017-12-12T08:02:35.737Z,26.27
2017-12-12T08:05:09.363Z,20.25
2017-12-12T08:07:43.602Z,20.05
2017-12-12T08:10:18.181Z,21.70
2017-12-12T08:12:52.662Z,20.55
2017-12-12T08:15:26.393Z,23.77
2017-12-12T08:18:00.950Z,16.87
2017-12-12T08:20:34.756Z,20.92
2017-12-12T08:23:08.498Z,19.30
2017-12-12T08:25:43.408Z,21.55
2017-12-12T08:28:17.104Z,18.23
2017-12-12T08:30:50.913Z,15.10
2017-12-12T08:33:24.683Z,22.08
2017-12-12T08:35:59.267Z,21.27
2017-12-12T08:38:33.044Z,20.12
2017-12-12T08:41:07.524Z,16.05
2017-12-12T08:43:41.917Z,24.83
2017-12-12T08:46:16.413Z,13.15
2017-12-12T08:48:50.635Z,19.45
2017-12-12T08:51:24.661Z,17.05
2017-12-12T08:53:58.494Z,14.57
2017-12-12T08:56:32.182Z,15.80
2017-12-12T08:59:06.488Z,20.37
2017-12-12T09:01:40.178Z,16.52
2017-12-12T09:04:15.498Z,15.65
2017-12-12T09:06:49.897Z,16.65
2017-12-12T09:09:23.965Z,18.60
2017-12-12T09:11:59.561Z,18.20
2017-12-12T09:14:34.736Z,13.20
2017-12-12T09:17:09.305Z,21.35
2017-12-12T09:19:43.063Z,18.12
2017-12-12T09:22:17.544Z,13.85
2017-12-12T09:24:51.217Z,15.35
2017-12-12T09:27:24.952Z,16.00
2017-12-12T09:29:58.925Z,20.23
2017-12-12T09:32:33.453Z,14.73
2017-12-12T09:35:07.188Z,15.80
2017-12-12T09:37:42.225Z,18.05
2017-12-12T09:40:17.877Z,14.50
2017-12-12T09:42:54.410Z,12.82
2017-12-12T09:45:32.402Z,10.50
2017-12-12T09:48:11.608Z,15.07
2017-12-12T09:53:28.371Z,16.77
2017-12-12T09:56:02.129Z,16.40
2017-12-12T09:58:35.816Z,18.08
2017-12-12T10:01:10.390Z,15.70
2017-12-12T10:03:44.421Z,15.13
2017-12-12T10:06:20.672Z,18.77
2017-12-12T10:08:54.336Z,16.17
2017-12-12T10:11:29.164Z,16.30
2017-12-12T10:14:02.877Z,16.17
2017-12-12T10:16:36.645Z,18.27
2017-12-12T10:19:11.323Z,20.42
2017-12-12T10:21:45.817Z,17.85
2017-12-12T10:24:19.433Z,15.18
2017-12-12T10:26:53.925Z,16.77
2017-12-12T10:29:27.700Z,16.83
2017-12-12T10:32:01.461Z,15.77
2017-12-12T10:34:36.772Z,17.42
2017-12-12T10:37:10.473Z,16.98
2017-12-12T10:39:44.181Z,21.27
2017-12-12T10:42:17.779Z,17.90
2017-12-12T10:44:51.520Z,18.05
2017-12-12T10:47:25.328Z,17.23
2017-12-12T10:49:59.084Z,18.15
2017-12-12T10:52:32.838Z,17.40
2017-12-12T10:55:06.603Z,16.37
2017-12-12T10:57:40.360Z,19.50
2017-12-12T11:00:14.257Z,16.58
2017-12-12T11:02:49.443Z,18.55
2017-12-12T11:05:23.142Z,22.50
2017-12-12T11:07:58.220Z,15.38
2017-12-12T11:10:31.942Z,13.95
2017-12-12T11:13:06.099Z,16.80
2017-12-12T11:15:39.838Z,15.20
2017-12-12T11:18:15.605Z,16.73
2017-12-12T11:20:49.342Z,15.23
2017-12-12T11:23:23.098Z,13.62
2017-12-12T11:25:56.911Z,13.95
2017-12-12T11:28:31.186Z,12.45
2017-12-12T11:31:04.945Z,13.82
2017-12-12T11:33:39.949Z,15.50
2017-12-12T11:36:17.677Z,14.95
2017-12-12T11:39:00.397Z,14.27
2017-12-12T11:47:45.516Z,11.80
2017-12-12T11:52:58.375Z,10.35
2017-12-12T11:55:35.089Z,11.32
2017-12-12T11:58:11.345Z,11.23
2017-12-12T12:03:38.544Z,11.07
2017-12-12T12:08:54.705Z,9.75
2017-12-12T12:11:30.093Z,11.00
2017-12-12T12:14:07.480Z,9.93
2017-12-12T12:16:41.060Z,8.82
2017-12-12T12:19:17.583Z,7.32
2017-12-12T12:24:37.696Z,6.87
2017-12-12T12:33:16.295Z,7.32
2017-12-12T12:35:57.644Z,8.70
2017-12-12T12:38:35.570Z,7.15
2017-12-12T12:41:11.590Z,7.75
2017-12-12T12:46:33.218Z,6.70
2017-12-12T12:49:07.109Z,7.28
2017-12-12T12:51:42.387Z,10.15
2017-12-12T12:54:19.934Z,7.28
2017-12-12T12:56:54.628Z,7.20
2017-12-12T12:59:29.201Z,7.05
2017-12-12T13:02:05.981Z,6.70
2017-12-12T13:04:45.982Z,7.43
2017-12-12T13:07:23.202Z,8.07
2017-12-12T13:09:58.236Z,7.50
2017-12-12T13:12:35.447Z,6.87
2017-12-12T13:15:15.745Z,5.47
2017-12-12T13:17:49.387Z,7.00
2017-12-12T13:20:24.349Z,10.20
2017-12-12T13:23:00.305Z,9.30
2017-12-12T13:28:15.364Z,8.30
2017-12-12T13:30:51.251Z,12.35
2017-12-12T13:33:24.825Z,8.27
2017-12-12T13:35:59.292Z,9.85
2017-12-12T13:38:33.931Z,10.13
2017-12-12T13:41:07.711Z,8.43
2017-12-12T13:43:42.762Z,11.85
2017-12-12T13:46:17.430Z,8.73
2017-12-12T13:48:52.881Z,7.72
2017-12-12T13:51:27.571Z,11.80
2017-12-12T13:54:05.145Z,9.57
2017-12-12T13:56:42.993Z,11.05
2017-12-12T13:59:20.688Z,9.95
2017-12-12T14:02:00.885Z,9.45
2017-12-12T14:04:34.857Z,8.75
2017-12-12T14:07:08.503Z,9.60
2017-12-12T14:09:42.342Z,7.60
2017-12-12T14:12:16.011Z,9.70
2017-12-12T14:14:49.791Z,7.35
2017-12-12T14:17:24.288Z,8.90
2017-12-12T14:19:58.830Z,7.50
2017-12-12T14:22:32.623Z,8.93
2017-12-12T14:25:06.292Z,8.55
2017-12-12T14:27:40.063Z,9.23
2017-12-12T14:30:14.420Z,8.65
2017-12-12T14:32:48.062Z,8.25
2017-12-12T14:35:21.880Z,8.82
2017-12-12T14:37:55.589Z,9.30
2017-12-12T14:40:29.667Z,10.95
2017-12-12T14:43:03.369Z,9.30
2017-12-12T14:45:37.098Z,12.52
2017-12-12T14:48:11.774Z,11.15
2017-12-12T14:50:45.486Z,9.70
2017-12-12T14:53:19.473Z,12.45
2017-12-12T14:55:53.941Z,10.30
2017-12-12T14:58:27.771Z,10.52
2017-12-12T15:01:01.660Z,13.45
2017-12-12T15:03:35.382Z,11.50
2017-12-12T15:06:09.144Z,10.77
2017-12-12T15:08:42.971Z,11.10
2017-12-12T15:11:16.784Z,14.68
2017-12-12T15:13:52.070Z,12.48
2017-12-12T15:16:25.707Z,11.60
2017-12-12T15:19:01.385Z,12.77
2017-12-12T15:21:36.007Z,11.40
2017-12-12T15:24:10.695Z,13.07
2017-12-12T15:26:45.543Z,12.27
2017-12-12T15:29:21.221Z,15.00
2017-12-12T15:31:54.933Z,14.05
2017-12-12T15:34:29.620Z,11.90
2017-12-12T15:37:03.232Z,12.60
2017-12-12T15:39:36.844Z,14.07
2017-12-12T15:42:10.942Z,16.92
2017-12-12T15:44:45.686Z,16.80
2017-12-12T15:47:19.445Z,13.02
2017-12-12T15:49:53.188Z,13.07
2017-12-12T15:52:27.345Z,14.40
2017-12-12T15:55:03.156Z,13.93
2017-12-12T16:00:23.389Z,10.20
2017-12-12T16:02:57.031Z,11.52
2017-12-12T16:05:30.712Z,13.38
2017-12-12T16:08:04.445Z,9.88
2017-12-12T16:10:38.201Z,13.77
2017-12-12T16:13:11.932Z,14.30
2017-12-12T16:15:46.465Z,13.25
2017-12-12T16:18:20.049Z,13.62
2017-12-12T16:20:53.760Z,11.55
2017-12-12T16:23:27.598Z,14.52
2017-12-12T16:26:01.350Z,14.48
2017-12-12T16:28:35.078Z,16.80
2017-12-12T16:31:09.600Z,17.62
2017-12-12T16:33:43.380Z,16.60
2017-12-12T16:36:17.146Z,18.25
2017-12-12T16:38:50.888Z,18.35
2017-12-12T16:41:24.831Z,18.60
2017-12-12T16:43:58.561Z,20.48
2017-12-12T16:46:32.277Z,20.15
2017-12-12T16:49:06.133Z,19.42
2017-12-12T16:51:39.811Z,18.58
2017-12-12T16:54:13.550Z,23.08
2017-12-12T16:56:47.283Z,24.83
2017-12-12T16:59:21.052Z,25.45
2017-12-12T17:01:54.756Z,25.67
2017-12-12T17:04:28.504Z,27.35
2017-12-12T17:07:02.202Z,27.10
2017-12-12T17:09:35.960Z,25.50
2017-12-12T17:12:10.426Z,29.10
2017-12-12T17:14:44.177Z,27.02
2017-12-12T17:17:17.851Z,23.65
2017-12-12T17:19:51.581Z,30.60
2017-12-12T17:22:25.344Z,34.50
2017-12-12T17:24:59.163Z,31.30
2017-12-12T17:27:32.852Z,32.10
2017-12-12T17:30:06.612Z,33.35
2017-12-12T17:32:40.416Z,28.65
2017-12-12T17:35:14.162Z,37.30
2017-12-12T17:37:47.871Z,34.28
2017-12-12T17:40:21.649Z,35.67
2017-12-12T17:42:56.174Z,34.03
2017-12-12T17:45:30.717Z,36.30
2017-12-12T17:48:04.397Z,35.35
2017-12-12T17:50:38.789Z,34.22
2017-12-12T17:53:25.026Z,33.95
2017-12-12T17:55:58.755Z,33.03
2017-12-12T17:58:32.522Z,33.47
2017-12-12T18:01:06.249Z,32.78
2017-12-12T18:03:40.784Z,39.15
2017-12-12T18:06:14.391Z,33.47
2017-12-12T18:08:48.165Z,35.67
2017-12-12T18:11:21.863Z,34.47
2017-12-12T18:13:55.637Z,37.50
2017-12-12T18:16:30.030Z,36.65
2017-12-12T18:19:03.822Z,34.60
2017-12-12T18:21:37.584Z,37.20
2017-12-12T18:24:11.242Z,37.47
2017-12-12T18:26:44.894Z,38.03
2017-12-12T18:29:18.564Z,39.42
2017-12-12T18:31:52.273Z,37.78
2017-12-12T18:34:26.836Z,43.72
2017-12-12T18:37:01.280Z,52.33
2017-12-12T18:39:34.900Z,45.72
2017-12-12T18:42:08.674Z,44.75
2017-12-12T18:44:42.378Z,43.45
2017-12-12T18:47:16.165Z,49.38
2017-12-12T18:49:49.884Z,46.15
2017-12-12T18:52:24.525Z,42.10
2017-12-12T18:57:40.303Z,34.38
2017-12-12T19:00:14.832Z,34.15
2017-12-12T19:02:48.531Z,35.78
2017-12-12T19:05:22.577Z,40.12
2017-12-12T19:08:11.100Z,34.45
2017-12-12T19:10:44.789Z,41.08
2017-12-12T19:13:18.713Z,35.90
2017-12-12T19:15:52.276Z,36.40
2017-12-12T19:18:26.749Z,38.83
2017-12-12T19:21:00.596Z,31.42
2017-12-12T19:23:34.568Z,34.33
2017-12-12T19:26:08.239Z,32.67
2017-12-12T19:28:43.152Z,39.33
2017-12-12T19:31:16.986Z,37.90
2017-12-12T19:33:50.785Z,32.53
2017-12-12T19:36:24.536Z,32.38
2017-12-12T19:38:59.074Z,32.90
2017-12-12T19:41:33.621Z,34.00
2017-12-12T19:44:07.363Z,35.60
2017-12-12T19:46:41.092Z,31.48
2017-12-12T19:49:15.889Z,35.35
2017-12-12T19:51:49.506Z,36.75
2017-12-12T19:54:23.320Z,36.60
2017-12-12T19:56:56.953Z,36.17
2017-12-12T19:59:30.736Z,36.80
2017-12-12T20:02:04.423Z,34.78
2017-12-12T20:04:38.377Z,37.97
2017-12-12T20:07:12.841Z,33.22
2017-12-12T20:09:47.757Z,38.38
2017-12-12T20:15:01.075Z,28.62
2017-12-12T20:17:35.452Z,32.45
2017-12-12T20:20:13.892Z,42.45
2017-12-12T20:22:47.606Z,36.63
2017-12-12T20:25:23.333Z,37.35
2017-12-12T20:28:00.040Z,37.78
2017-12-12T20:30:33.920Z,37.47
2017-12-12T20:33:14.133Z,45.60
2017-12-12T20:36:12.705Z,36.47
2017-12-12T20:44:55.214Z,43.20
2017-12-12T20:47:35.393Z,35.80
2017-12-12T20:50:11.721Z,34.45
2017-12-12T20:52:53.911Z,42.53
2017-12-12T20:55:29.192Z,44.15
2017-12-12T20:58:04.589Z,41.22
2017-12-12T21:00:38.642Z,40.45
2017-12-12T21:05:52.125Z,35.08
2017-12-12T21:08:26.922Z,41.78
2017-12-12T21:11:02.860Z,37.78
2017-12-12T21:13:36.608Z,41.60
2017-12-12T21:16:10.627Z,42.78
2017-12-12T21:18:45.243Z,38.55
2017-12-12T21:21:19.652Z,39.70
2017-12-12T21:23:53.381Z,39.63
2017-12-12T21:26:27.821Z,42.10
2017-12-12T21:29:01.610Z,38.20
2017-12-12T21:31:35.438Z,31.90
2017-12-12T21:34:10.030Z,39.78
2017-12-12T21:36:43.917Z,36.85
2017-12-12T21:39:18.577Z,33.88
2017-12-12T21:41:52.565Z,31.62
2017-12-12T21:44:26.463Z,31.45
2017-12-12T21:47:00.441Z,33.75
2017-12-12T21:49:34.817Z,32.05
2017-12-12T21:52:08.806Z,35.13
2017-12-12T21:54:43.185Z,35.78
2017-12-12T21:57:17.546Z,36.35
2017-12-12T21:59:52.346Z,44.42
2017-12-12T22:02:26.656Z,35.33
2017-12-12T22:05:00.592Z,31.65
2017-12-12T22:07:34.466Z,38.47
2017-12-12T22:10:08.170Z,36.13
2017-12-12T22:12:41.914Z,40.90
2017-12-12T22:15:15.683Z,43.90
2017-12-12T22:17:49.423Z,37.90
2017-12-12T22:20:23.240Z,39.30
2017-12-12T22:22:57.425Z,34.67
2017-12-12T22:25:31.109Z,47.60
2017-12-12T22:28:04.869Z,52.40
2017-12-12T22:30:38.594Z,49.83
2017-12-12T22:33:12.391Z,38.35
2017-12-12T22:35:46.689Z,45.47
2017-12-12T22:38:20.611Z,37.80
2017-12-12T22:40:54.969Z,44.33
2017-12-12T22:43:28.786Z,40.55
2017-12-12T22:46:02.473Z,70.37
2017-12-12T22:48:36.290Z,40.65
2017-12-12T22:51:10.085Z,35.58
2017-12-12T22:53:44.610Z,39.33
2017-12-12T22:56:18.288Z,35.22
2017-12-12T22:58:52.800Z,33.70
2017-12-12T23:01:28.073Z,32.33
2017-12-12T23:04:01.848Z,35.55
2017-12-12T23:06:35.891Z,34.80
2017-12-12T23:09:09.654Z,67.75
2017-12-12T23:11:43.425Z,29.48
2017-12-12T23:14:17.485Z,111.55
2017-12-12T23:16:51.289Z,42.50
2017-12-12T23:19:29.876Z,36.75
2017-12-12T23:22:03.548Z,30.02
2017-12-12T23:24:39.005Z,29.02
2017-12-12T23:27:13.539Z,31.42
2017-12-12T23:29:48.733Z,26.08
2017-12-12T23:32:23.631Z,28.42
2017-12-12T23:34:57.268Z,38.10
2017-12-12T23:37:32.530Z,27.87
2017-12-12T23:40:06.312Z,33.35
2017-12-12T23:42:40.052Z,26.33
2017-12-12T23:45:13.825Z,29.65
2017-12-12T23:47:47.629Z,27.30
2017-12-12T23:50:24.395Z,32.38
2017-12-12T23:52:59.973Z,32.72
2017-12-12T23:55:34.112Z,31.95
2017-12-12T23:58:08.522Z,35.55
